createdAt,value
2023-04-16T00:02:08.608Z,26.00
2023-04-16T00:04:36.631Z,30.53
2023-04-16T00:07:04.794Z,26.27
2023-04-16T00:09:34.112Z,19.97
2023-04-16T00:12:02.011Z,31.53
2023-04-16T00:14:31.040Z,31.20
2023-04-16T00:16:59.077Z,18.77
2023-04-16T00:19:26.973Z,30.00
2023-04-16T00:21:54.876Z,24.20
2023-04-16T00:24:22.685Z,27.20
2023-04-16T00:26:51.866Z,26.43
2023-04-16T00:29:19.901Z,24.97
2023-04-16T00:31:47.754Z,21.33
2023-04-16T00:34:15.662Z,26.47
2023-04-16T00:36:43.535Z,19.33
2023-04-16T00:39:11.574Z,24.87
2023-04-16T00:41:39.700Z,26.73
2023-04-16T00:44:09.067Z,15.53
2023-04-16T00:46:38.293Z,25.20
2023-04-16T00:49:06.394Z,24.73
2023-04-16T00:51:36.132Z,25.27
2023-04-16T00:54:05.210Z,15.43
2023-04-16T00:56:34.237Z,25.53
2023-04-16T00:59:02.322Z,15.33
2023-04-16T01:01:31.728Z,24.47
2023-04-16T01:03:59.779Z,22.87
2023-04-16T01:06:28.423Z,22.10
2023-04-16T01:08:56.409Z,23.70
2023-04-16T01:11:24.197Z,24.83
2023-04-16T01:13:52.080Z,23.93
2023-04-16T01:16:20.206Z,19.70
2023-04-16T01:18:49.600Z,20.77
2023-04-16T01:21:18.809Z,22.23
2023-04-16T01:23:46.776Z,18.30
2023-04-16T01:26:14.740Z,20.93
2023-04-16T01:28:42.907Z,23.73
2023-04-16T01:31:10.802Z,23.33
2023-04-16T01:33:48.649Z,23.63
2023-04-16T01:36:18.041Z,16.87
2023-04-16T01:38:46.983Z,16.70
2023-04-16T01:41:14.913Z,24.73
2023-04-16T01:43:42.981Z,21.27
2023-04-16T01:46:15.267Z,22.23
2023-04-16T01:48:43.390Z,24.93
2023-04-16T01:51:11.350Z,22.30
2023-04-16T01:53:40.582Z,25.70
2023-04-16T01:56:08.631Z,19.10
2023-04-16T01:58:36.767Z,21.60
2023-04-16T02:01:05.838Z,23.93
2023-04-16T02:03:34.625Z,18.23
2023-04-16T02:06:02.675Z,19.93
2023-04-16T02:08:30.690Z,23.83
2023-04-16T02:11:00.279Z,21.13
2023-04-16T02:13:28.285Z,20.80
2023-04-16T02:15:56.106Z,20.60
2023-04-16T02:18:43.802Z,24.20
2023-04-16T02:21:13.839Z,21.47
2023-04-16T02:23:42.386Z,23.13
2023-04-16T02:26:13.484Z,23.30
2023-04-16T02:28:41.783Z,24.00
2023-04-16T02:31:11.807Z,23.93
2023-04-16T02:33:44.588Z,21.60
2023-04-16T02:36:12.884Z,23.77
2023-04-16T02:38:40.758Z,23.27
2023-04-16T02:41:09.070Z,17.03
2023-04-16T02:43:38.203Z,14.17
2023-04-16T02:46:06.611Z,14.50
2023-04-16T02:48:34.661Z,24.10
2023-04-16T02:51:02.613Z,24.77
2023-04-16T02:53:30.844Z,20.40
2023-04-16T02:55:58.856Z,23.30
2023-04-16T02:58:27.388Z,21.30
2023-04-16T03:00:56.679Z,22.90
2023-04-16T03:03:24.900Z,23.33
2023-04-16T03:05:52.883Z,17.83
2023-04-16T03:08:20.740Z,23.77
2023-04-16T03:10:48.717Z,20.93
2023-04-16T03:13:16.578Z,21.40
2023-04-16T03:15:50.367Z,22.77
2023-04-16T03:18:19.602Z,23.13
2023-04-16T03:20:47.417Z,22.07
2023-04-16T03:23:15.431Z,23.77
2023-04-16T03:25:46.500Z,19.93
2023-04-16T03:28:18.558Z,18.93
2023-04-16T03:30:52.072Z,19.97
2023-04-16T03:33:22.949Z,20.40
2023-04-16T03:35:58.765Z,23.93
2023-04-16T03:38:29.807Z,17.27
2023-04-16T03:40:59.961Z,19.20
2023-04-16T03:43:28.368Z,18.17
2023-04-16T03:45:56.425Z,20.13
2023-04-16T03:48:26.645Z,23.83
2023-04-16T03:50:55.400Z,20.37
2023-04-16T03:53:23.492Z,21.93
2023-04-16T03:55:52.222Z,20.53
2023-04-16T03:58:21.373Z,22.63
2023-04-16T04:00:49.340Z,19.17
2023-04-16T04:03:18.892Z,24.40
2023-04-16T04:05:51.129Z,22.40
2023-04-16T04:08:27.202Z,24.33
2023-04-16T04:10:56.760Z,24.20
2023-04-16T04:13:26.044Z,24.50
2023-04-16T04:15:54.804Z,22.93
2023-04-16T04:18:23.785Z,23.77
2023-04-16T04:20:53.366Z,21.23
2023-04-16T04:23:25.055Z,25.03
2023-04-16T04:25:52.963Z,25.30
2023-04-16T04:28:20.771Z,26.03
2023-04-16T04:30:48.960Z,23.60
2023-04-16T04:33:16.934Z,26.60
2023-04-16T04:35:44.800Z,23.63
2023-04-16T04:38:16.169Z,23.13
2023-04-16T04:40:44.458Z,27.20
2023-04-16T04:43:12.527Z,23.63
2023-04-16T04:45:41.057Z,24.47
2023-04-16T04:48:08.895Z,25.40
2023-04-16T04:50:37.959Z,27.77
2023-04-16T04:53:09.892Z,23.57
2023-04-16T04:55:40.600Z,27.17
2023-04-16T04:58:09.149Z,26.70
2023-04-16T05:00:37.889Z,25.73
2023-04-16T05:03:07.786Z,27.53
2023-04-16T05:05:35.622Z,28.00
2023-04-16T05:08:03.652Z,25.97
2023-04-16T05:10:31.561Z,28.43
2023-04-16T05:13:00.905Z,26.70
2023-04-16T05:15:28.786Z,28.97
2023-04-16T05:17:56.834Z,28.70
2023-04-16T05:20:25.022Z,27.70
2023-04-16T05:22:52.977Z,27.97
2023-04-16T05:25:20.954Z,30.10
2023-04-16T05:27:48.831Z,26.80
2023-04-16T05:30:18.028Z,28.53
2023-04-16T05:32:45.983Z,29.00
2023-04-16T05:35:15.937Z,28.43
2023-04-16T05:37:45.160Z,29.10
2023-04-16T05:40:14.861Z,26.10
2023-04-16T05:42:42.764Z,26.60
2023-04-16T05:45:11.581Z,28.03
2023-04-16T05:47:40.857Z,29.43
2023-04-16T05:50:09.286Z,29.37
2023-04-16T05:52:37.168Z,27.23
2023-04-16T05:55:05.388Z,28.60
2023-04-16T05:57:34.418Z,27.53
2023-04-16T06:00:02.357Z,26.33
2023-04-16T06:02:41.773Z,28.30
2023-04-16T06:05:10.070Z,25.43
2023-04-16T06:07:37.954Z,25.10
2023-04-16T06:10:06.618Z,28.17
2023-04-16T06:12:34.438Z,28.33
2023-04-16T06:15:03.957Z,26.90
2023-04-16T06:17:31.789Z,29.40
2023-04-16T06:20:01.118Z,28.60
2023-04-16T06:22:29.107Z,29.43
2023-04-16T06:24:56.994Z,24.47
2023-04-16T06:27:24.992Z,26.70
2023-04-16T06:29:52.826Z,27.07
2023-04-16T06:32:20.893Z,23.57
2023-04-16T06:34:48.692Z,29.43
2023-04-16T06:37:17.975Z,29.40
2023-04-16T06:39:45.878Z,26.00
2023-04-16T06:42:13.726Z,31.47
2023-04-16T06:44:41.643Z,33.77
2023-04-16T06:47:09.820Z,30.13
2023-04-16T06:49:39.393Z,29.30
2023-04-16T06:52:07.294Z,32.50
2023-04-16T06:54:36.952Z,32.00
2023-04-16T06:57:05.008Z,28.80
2023-04-16T06:59:32.808Z,28.93
2023-04-16T07:02:00.890Z,31.50
2023-04-16T07:04:28.866Z,29.50
2023-04-16T07:06:58.299Z,29.23
2023-04-16T07:09:26.717Z,29.97
2023-04-16T07:11:56.246Z,27.03
2023-04-16T07:14:24.186Z,24.03
2023-04-16T07:16:52.126Z,30.23
2023-04-16T07:19:20.016Z,26.73
2023-04-16T07:21:47.908Z,27.03
2023-04-16T07:24:15.810Z,27.93
2023-04-16T07:26:43.683Z,19.57
2023-04-16T07:29:13.454Z,27.67
2023-04-16T07:31:41.373Z,23.87
2023-04-16T07:34:09.382Z,25.67
2023-04-16T07:36:37.277Z,27.87
2023-04-16T07:39:05.691Z,25.63
2023-04-16T07:41:33.646Z,23.73
2023-04-16T07:44:01.776Z,16.57
2023-04-16T07:46:45.669Z,30.60
2023-04-16T07:49:14.587Z,24.60
2023-04-16T07:51:42.443Z,22.07
2023-04-16T07:54:11.078Z,25.53
2023-04-16T07:56:38.951Z,25.40
2023-04-16T07:59:21.104Z,25.03
2023-04-16T08:01:53.519Z,27.23
2023-04-16T08:04:25.041Z,26.37
2023-04-16T08:06:53.994Z,23.40
2023-04-16T08:09:23.873Z,24.63
2023-04-16T08:11:51.870Z,26.17
2023-04-16T08:14:19.665Z,22.60
2023-04-16T08:16:47.507Z,24.60
2023-04-16T08:19:16.754Z,27.10
2023-04-16T08:21:44.751Z,26.27
2023-04-16T08:24:12.589Z,22.90
2023-04-16T08:26:40.669Z,24.23
2023-04-16T08:29:08.682Z,26.00
2023-04-16T08:31:36.845Z,23.20
2023-04-16T08:34:04.700Z,28.93
2023-04-16T08:36:33.896Z,25.83
2023-04-16T08:39:01.701Z,25.73
2023-04-16T08:41:31.888Z,28.63
2023-04-16T08:44:01.696Z,22.73
2023-04-16T08:46:32.391Z,20.57
2023-04-16T08:49:01.516Z,22.13
2023-04-16T08:51:34.971Z,24.47
2023-04-16T08:54:09.439Z,23.70
2023-04-16T08:56:38.231Z,18.17
2023-04-16T08:59:06.300Z,19.27
2023-04-16T09:01:34.752Z,24.83
2023-04-16T09:04:03.888Z,21.10
2023-04-16T09:06:33.981Z,24.60
2023-04-16T09:09:04.606Z,21.97
2023-04-16T09:11:34.888Z,14.90
2023-04-16T09:14:02.914Z,23.60
2023-04-16T09:16:35.190Z,16.73
2023-04-16T09:19:03.810Z,22.83
2023-04-16T09:21:32.082Z,24.23
2023-04-16T09:24:01.194Z,20.97
2023-04-16T09:26:29.263Z,27.43
2023-04-16T09:28:58.561Z,23.33
2023-04-16T09:31:27.127Z,22.07
2023-04-16T09:34:05.343Z,22.50
2023-04-16T09:36:33.903Z,14.43
2023-04-16T09:39:02.341Z,16.60
2023-04-16T09:41:31.830Z,23.67
2023-04-16T09:44:02.430Z,21.53
2023-04-16T09:46:32.639Z,16.97
2023-04-16T09:49:06.284Z,17.23
2023-04-16T09:51:38.373Z,14.57
2023-04-16T09:54:06.670Z,19.57
2023-04-16T09:56:34.643Z,21.37
2023-04-16T09:59:04.189Z,20.80
2023-04-16T10:01:32.952Z,20.93
2023-04-16T10:04:00.936Z,18.77
2023-04-16T10:06:31.136Z,17.30
2023-04-16T10:08:59.037Z,25.93
2023-04-16T10:11:27.019Z,23.93
2023-04-16T10:13:56.515Z,16.80
2023-04-16T10:16:26.739Z,25.27
2023-04-16T10:18:55.162Z,20.17
2023-04-16T10:21:23.451Z,21.77
2023-04-16T10:23:53.379Z,20.83
2023-04-16T10:26:23.051Z,21.00
2023-04-16T10:28:51.241Z,22.90
2023-04-16T10:31:19.141Z,22.73
2023-04-16T10:33:48.744Z,20.90
2023-04-16T10:36:18.040Z,22.23
2023-04-16T10:38:47.917Z,21.60
2023-04-16T10:41:15.889Z,21.40
2023-04-16T10:43:46.091Z,19.93
2023-04-16T10:46:22.479Z,26.67
2023-04-16T10:48:54.227Z,22.60
2023-04-16T10:51:28.032Z,18.47
2023-04-16T10:53:57.119Z,24.20
2023-04-16T10:56:26.121Z,25.07
2023-04-16T10:58:55.951Z,22.93
2023-04-16T11:01:32.469Z,22.17
2023-04-16T11:04:03.337Z,22.10
2023-04-16T11:06:32.051Z,14.27
2023-04-16T11:08:59.986Z,21.93
2023-04-16T11:11:29.969Z,15.07
2023-04-16T11:13:57.993Z,20.17
2023-04-16T11:16:27.176Z,20.20
2023-04-16T11:18:57.107Z,21.47
2023-04-16T11:21:26.834Z,13.27
2023-04-16T11:23:54.847Z,19.00
2023-04-16T11:26:28.494Z,20.40
2023-04-16T11:28:57.414Z,17.17
2023-04-16T11:31:27.071Z,22.37
2023-04-16T11:33:57.661Z,21.77
2023-04-16T11:36:27.703Z,17.37
2023-04-16T11:39:03.773Z,21.17
2023-04-16T11:41:31.755Z,20.00
2023-04-16T11:43:59.578Z,19.50
2023-04-16T11:46:39.601Z,18.40
2023-04-16T11:49:08.684Z,19.37
2023-04-16T11:51:42.114Z,20.23
2023-04-16T11:54:12.008Z,16.43
2023-04-16T11:56:46.535Z,17.17
2023-04-16T11:59:15.889Z,20.53
2023-04-16T12:01:46.758Z,21.70
2023-04-16T12:04:15.804Z,21.30
2023-04-16T12:07:12.553Z,21.87
2023-04-16T12:09:42.221Z,18.97
2023-04-16T12:12:30.393Z,18.13
2023-04-16T12:14:59.601Z,17.83
2023-04-16T12:17:27.523Z,11.93
2023-04-16T12:19:58.592Z,17.60
2023-04-16T12:22:34.102Z,14.07
2023-04-16T12:25:04.952Z,22.80
2023-04-16T12:27:46.728Z,22.80
2023-04-16T12:30:15.955Z,20.47
2023-04-16T12:32:44.847Z,21.93
2023-04-16T12:35:13.378Z,18.47
2023-04-16T12:37:42.671Z,19.43
2023-04-16T12:40:11.547Z,20.20
2023-04-16T12:42:39.408Z,19.47
2023-04-16T12:45:08.143Z,18.37
2023-04-16T12:47:35.965Z,17.33
2023-04-16T12:50:03.937Z,15.50
2023-04-16T12:52:31.846Z,21.57
2023-04-16T12:55:02.503Z,18.83
2023-04-16T12:57:30.372Z,22.00
2023-04-16T12:59:58.536Z,20.03
2023-04-16T13:02:27.012Z,20.83
2023-04-16T13:04:55.626Z,18.53
2023-04-16T13:07:24.209Z,20.10
2023-04-16T13:09:52.190Z,18.03
2023-04-16T13:12:21.454Z,19.70
2023-04-16T13:14:49.267Z,18.00
2023-04-16T13:17:17.259Z,21.23
2023-04-16T13:19:45.637Z,18.43
2023-04-16T13:22:13.830Z,20.60
2023-04-16T13:24:41.637Z,18.67
2023-04-16T13:27:09.738Z,16.47
2023-04-16T13:29:38.989Z,20.03
2023-04-16T13:32:07.388Z,21.37
2023-04-16T13:34:35.744Z,19.20
2023-04-16T13:37:03.727Z,21.97
2023-04-16T13:39:31.555Z,33.20
2023-04-16T13:42:00.035Z,19.13
2023-04-16T13:44:27.853Z,19.57
2023-04-16T13:46:57.460Z,18.03
2023-04-16T13:49:25.460Z,19.70
2023-04-16T13:51:53.415Z,23.30
2023-04-16T13:54:21.292Z,19.10
2023-04-16T13:56:51.021Z,19.60
2023-04-16T13:59:20.112Z,22.33
2023-04-16T14:01:47.998Z,23.00
2023-04-16T14:04:17.234Z,29.50
2023-04-16T14:06:45.204Z,20.73
2023-04-16T14:09:13.181Z,17.63
2023-04-16T14:11:41.373Z,20.80
2023-04-16T14:14:09.212Z,21.37
2023-04-16T14:16:37.176Z,22.23
2023-04-16T14:19:05.065Z,22.93
2023-04-16T14:21:34.454Z,22.53
2023-04-16T14:24:02.296Z,18.27
2023-04-16T14:26:30.244Z,20.80
2023-04-16T14:28:58.111Z,20.07
2023-04-16T14:31:26.053Z,22.87
2023-04-16T14:33:53.889Z,20.73
2023-04-16T14:36:21.804Z,20.80
2023-04-16T14:38:50.978Z,23.90
2023-04-16T14:41:18.954Z,24.83
2023-04-16T14:43:46.782Z,20.07
2023-04-16T14:46:17.585Z,28.13
2023-04-16T14:48:45.915Z,20.90
2023-04-16T14:51:13.728Z,21.00
2023-04-16T14:53:41.602Z,19.47
2023-04-16T14:56:13.472Z,18.97
2023-04-16T14:58:42.736Z,21.33
2023-04-16T15:01:10.910Z,20.80
2023-04-16T15:03:38.822Z,23.17
2023-04-16T15:06:07.045Z,22.33
2023-04-16T15:08:35.690Z,22.33
2023-04-16T15:11:04.045Z,21.83
2023-04-16T15:13:34.523Z,23.47
2023-04-16T15:16:02.544Z,20.07
2023-04-16T15:18:30.486Z,18.87
2023-04-16T15:20:58.582Z,19.13
2023-04-16T15:23:26.549Z,18.33
2023-04-16T15:25:54.516Z,22.37
2023-04-16T15:28:22.485Z,20.13
2023-04-16T15:30:52.901Z,19.87
2023-04-16T15:33:22.145Z,23.57
2023-04-16T15:35:51.387Z,12.40
2023-04-16T15:38:20.959Z,22.77
2023-04-16T15:40:49.031Z,20.73
2023-04-16T15:43:17.176Z,21.73
2023-04-16T15:45:45.051Z,21.00
2023-04-16T15:48:14.304Z,25.53
2023-04-16T15:50:42.367Z,22.13
2023-04-16T15:53:10.178Z,21.50
2023-04-16T15:55:38.262Z,26.30
2023-04-16T15:58:06.361Z,22.30
2023-04-16T16:00:34.227Z,22.87
2023-04-16T16:03:03.459Z,24.23
2023-04-16T16:05:32.880Z,20.77
2023-04-16T16:08:01.542Z,21.07
2023-04-16T16:10:29.499Z,22.70
2023-04-16T16:13:01.785Z,26.40
2023-04-16T16:15:30.153Z,23.73
2023-04-16T16:17:58.612Z,18.63
2023-04-16T16:20:27.344Z,22.70
2023-04-16T16:22:56.924Z,22.23
2023-04-16T16:25:25.128Z,18.37
2023-04-16T16:27:53.314Z,23.07
2023-04-16T16:30:21.345Z,23.70
2023-04-16T16:32:49.273Z,18.50
2023-04-16T16:35:17.201Z,14.87
2023-04-16T16:37:45.079Z,21.93
2023-04-16T16:40:14.322Z,21.33
2023-04-16T16:42:42.340Z,22.07
2023-04-16T16:45:11.482Z,21.57
2023-04-16T16:47:39.353Z,23.03
2023-04-16T16:50:11.267Z,12.43
2023-04-16T16:52:39.252Z,25.63
2023-04-16T16:55:10.842Z,22.57
2023-04-16T16:57:40.252Z,19.47
2023-04-16T17:00:13.955Z,20.20
2023-04-16T17:02:42.133Z,24.13
2023-04-16T17:05:10.822Z,23.27
2023-04-16T17:07:38.709Z,21.87
2023-04-16T17:10:07.455Z,21.17
2023-04-16T17:12:36.239Z,24.77
2023-04-16T17:15:06.348Z,21.63
2023-04-16T17:17:34.271Z,20.63
2023-04-16T17:20:04.311Z,19.40
2023-04-16T17:22:32.255Z,19.80
2023-04-16T17:25:00.294Z,23.17
2023-04-16T17:27:29.346Z,21.47
2023-04-16T17:30:00.113Z,23.80
2023-04-16T17:32:30.217Z,25.97
2023-04-16T17:34:58.196Z,24.57
2023-04-16T17:37:26.241Z,22.47
2023-04-16T17:39:54.188Z,30.57
2023-04-16T17:42:22.090Z,25.67
2023-04-16T17:44:50.004Z,24.13
2023-04-16T17:47:17.840Z,22.83
2023-04-16T17:49:47.091Z,24.97
2023-04-16T17:52:14.976Z,22.03
2023-04-16T17:54:43.316Z,20.97
2023-04-16T17:57:11.320Z,20.27
2023-04-16T17:59:39.122Z,22.57
2023-04-16T18:02:07.350Z,25.07
2023-04-16T18:04:35.276Z,24.30
2023-04-16T18:07:04.607Z,22.33
2023-04-16T18:09:32.404Z,22.93
2023-04-16T18:12:00.319Z,23.03
2023-04-16T18:14:28.149Z,25.97
2023-04-16T18:16:56.041Z,22.30
2023-04-16T18:19:23.835Z,21.23
2023-04-16T18:21:51.758Z,24.93
2023-04-16T18:24:21.229Z,22.20
2023-04-16T18:26:49.117Z,25.87
2023-04-16T18:29:18.149Z,23.20
2023-04-16T18:31:47.864Z,24.17
2023-04-16T18:34:15.818Z,25.40
2023-04-16T18:36:44.981Z,22.60
2023-04-16T18:39:12.792Z,25.93
2023-04-16T18:41:42.533Z,27.90
2023-04-16T18:44:10.854Z,23.83
2023-04-16T18:46:38.674Z,22.57
2023-04-16T18:49:06.545Z,21.83
2023-04-16T18:51:34.388Z,25.80
2023-04-16T18:54:02.344Z,23.83
2023-04-16T18:56:30.935Z,24.23
2023-04-16T18:59:00.200Z,23.80
2023-04-16T19:01:28.099Z,23.37
2023-04-16T19:03:56.020Z,23.57
2023-04-16T19:06:23.905Z,24.27
2023-04-16T19:08:51.783Z,21.13
2023-04-16T19:11:19.674Z,26.20
2023-04-16T19:13:47.510Z,26.80
2023-04-16T19:16:16.892Z,23.37
2023-04-16T19:18:44.770Z,30.40
2023-04-16T19:21:12.636Z,35.83
2023-04-16T19:23:40.452Z,27.97
2023-04-16T19:26:08.272Z,27.03
2023-04-16T19:28:36.068Z,26.60
2023-04-16T19:31:03.936Z,31.23
2023-04-16T19:33:33.037Z,27.70
2023-04-16T19:36:01.663Z,27.80
2023-04-16T19:38:31.642Z,24.43
2023-04-16T19:40:59.808Z,25.43
2023-04-16T19:43:30.592Z,25.73
2023-04-16T19:45:58.924Z,24.47
2023-04-16T19:48:26.808Z,23.77
2023-04-16T19:50:56.035Z,25.10
2023-04-16T19:53:24.392Z,24.10
2023-04-16T19:55:52.426Z,24.53
2023-04-16T19:58:20.202Z,22.30
2023-04-16T20:00:48.210Z,22.00
2023-04-16T20:03:16.254Z,22.33
2023-04-16T20:05:44.136Z,25.37
2023-04-16T20:08:13.314Z,25.83
2023-04-16T20:10:41.170Z,22.73
2023-04-16T20:13:11.873Z,24.70
2023-04-16T20:15:39.776Z,23.33
2023-04-16T20:18:08.461Z,23.70
2023-04-16T20:20:37.715Z,23.13
2023-04-16T20:23:05.650Z,24.63
2023-04-16T20:25:34.913Z,24.80
2023-04-16T20:28:02.735Z,28.63
2023-04-16T20:30:38.467Z,28.03
2023-04-16T20:33:07.301Z,28.73
2023-04-16T20:35:35.885Z,26.13
2023-04-16T20:38:03.774Z,25.10
2023-04-16T20:40:31.584Z,24.40
2023-04-16T20:43:01.202Z,26.73
2023-04-16T20:45:32.214Z,27.37
2023-04-16T20:48:00.314Z,27.80
2023-04-16T20:50:28.760Z,25.60
2023-04-16T20:52:56.653Z,25.50
2023-04-16T20:55:24.473Z,27.47
2023-04-16T20:57:52.364Z,26.30
2023-04-16T21:00:22.318Z,24.67
2023-04-16T21:02:50.474Z,27.63
2023-04-16T21:05:21.189Z,23.87
2023-04-16T21:07:49.010Z,25.63
2023-04-16T21:10:19.959Z,27.87
2023-04-16T21:12:47.796Z,27.40
2023-04-16T21:15:15.729Z,28.50
2023-04-16T21:17:45.032Z,26.93
2023-04-16T21:20:13.966Z,25.43
2023-04-16T21:22:41.858Z,28.90
2023-04-16T21:25:10.828Z,27.03
2023-04-16T21:27:38.640Z,27.63
2023-04-16T21:30:07.709Z,27.43
2023-04-16T21:32:35.675Z,26.53
2023-04-16T21:35:05.664Z,27.33
2023-04-16T21:37:33.747Z,30.73
2023-04-16T21:40:01.796Z,26.97
2023-04-16T21:42:31.338Z,30.37
2023-04-16T21:44:59.683Z,36.90
2023-04-16T21:47:27.505Z,35.43
2023-04-16T21:49:55.398Z,39.83
2023-04-16T21:52:24.632Z,46.37
2023-04-16T21:54:52.654Z,29.43
2023-04-16T21:57:20.623Z,31.17
2023-04-16T21:59:48.513Z,28.03
2023-04-16T22:02:16.430Z,32.07
2023-04-16T22:04:44.340Z,26.47
2023-04-16T22:07:12.499Z,31.57
2023-04-16T22:09:42.173Z,27.70
2023-04-16T22:12:10.967Z,31.00
2023-04-16T22:14:46.221Z,29.10
2023-04-16T22:17:23.839Z,29.70
2023-04-16T22:19:53.389Z,29.50
2023-04-16T22:22:21.982Z,29.73
2023-04-16T22:24:51.339Z,30.10
2023-04-16T22:27:19.359Z,30.90
2023-04-16T22:29:47.158Z,32.60
2023-04-16T22:32:15.380Z,29.43
2023-04-16T22:34:43.205Z,31.70
2023-04-16T22:37:11.139Z,30.87
2023-04-16T22:39:39.021Z,30.60
2023-04-16T22:42:08.269Z,30.90
2023-04-16T22:44:37.353Z,31.07
2023-04-16T22:47:05.377Z,28.60
2023-04-16T22:49:33.305Z,31.63
2023-04-16T22:52:01.617Z,31.97
2023-04-16T22:54:29.764Z,29.97
2023-04-16T22:56:58.015Z,31.27
2023-04-16T22:59:27.249Z,32.03
2023-04-16T23:01:55.178Z,28.83
2023-04-16T23:04:23.110Z,29.33
2023-04-16T23:06:51.248Z,32.53
2023-04-16T23:09:20.389Z,29.23
2023-04-16T23:11:48.368Z,28.90
2023-04-16T23:14:16.908Z,29.17
2023-04-16T23:16:46.314Z,28.97
2023-04-16T23:19:15.585Z,29.80
2023-04-16T23:21:43.395Z,28.50
2023-04-16T23:24:11.259Z,33.93
2023-04-16T23:26:39.129Z,32.57
2023-04-16T23:29:07.089Z,28.33
2023-04-16T23:31:34.890Z,31.50
2023-04-16T23:34:04.196Z,32.00
2023-04-16T23:36:32.018Z,34.60
2023-04-16T23:38:59.858Z,35.33
2023-04-16T23:41:27.649Z,36.93
2023-04-16T23:43:55.500Z,36.77
2023-04-16T23:46:23.434Z,33.57
2023-04-16T23:48:52.558Z,32.97
2023-04-16T23:51:21.701Z,38.30
2023-04-16T23:53:49.583Z,35.00
2023-04-16T23:56:17.378Z,32.17
2023-04-16T23:58:45.240Z,33.93
